createdAt,value
2017-11-06T00:00:37.376Z,99.99
2017-11-06T00:01:47.398Z,99.99
2017-11-06T00:02:57.444Z,99.99
2017-11-06T00:04:06.796Z,99.99
2017-11-06T00:05:16.813Z,99.99
2017-11-06T00:06:27.189Z,99.99
2017-11-06T00:07:37.226Z,99.99
2017-11-06T00:08:46.918Z,99.99
2017-11-06T00:09:56.948Z,99.99
2017-11-06T00:11:07.014Z,99.99
2017-11-06T00:12:17.030Z,99.99
2017-11-06T00:13:27.064Z,99.99
2017-11-06T00:14:37.418Z,99.99
2017-11-06T00:15:47.437Z,99.99
2017-11-06T00:16:57.450Z,99.99
2017-11-06T00:18:07.191Z,99.99
2017-11-06T00:19:17.221Z,99.99
2017-11-06T00:20:26.932Z,99.99
2017-11-06T00:21:36.644Z,99.99
2017-11-06T00:22:46.281Z,99.99
2017-11-06T00:23:56.658Z,99.99
2017-11-06T00:25:06.687Z,99.99
2017-11-06T00:26:17.086Z,99.99
2017-11-06T00:27:26.791Z,99.99
2017-11-06T00:28:36.136Z,99.99
2017-11-06T00:29:46.155Z,99.99
2017-11-06T00:30:55.508Z,99.99
2017-11-06T00:32:05.859Z,99.99
2017-11-06T00:33:16.209Z,99.99
2017-11-06T00:34:26.233Z,99.99
2017-11-06T00:35:36.580Z,99.99
2017-11-06T00:36:46.262Z,99.99
2017-11-06T00:37:55.943Z,99.99
2017-11-06T00:39:05.637Z,99.99
2017-11-06T00:40:15.986Z,99.99
2017-11-06T00:41:25.661Z,99.99
2017-11-06T00:42:36.039Z,99.99
2017-11-06T00:43:45.713Z,99.99
2017-11-06T00:44:55.391Z,99.99
2017-11-06T00:46:05.420Z,99.99
2017-11-06T00:47:15.103Z,99.99
2017-11-06T00:48:24.442Z,99.99
2017-11-06T00:49:34.463Z,99.99
2017-11-06T00:50:43.813Z,99.99
2017-11-06T00:51:54.174Z,99.99
2017-11-06T00:53:04.194Z,99.99
2017-11-06T00:54:14.224Z,99.99
2017-11-06T00:55:24.240Z,99.99
2017-11-06T00:56:33.920Z,99.99
2017-11-06T00:57:44.282Z,99.99
2017-11-06T00:58:53.985Z,99.99
2017-11-06T01:00:04.003Z,99.99
2017-11-06T01:01:14.008Z,99.99
2017-11-06T01:02:23.360Z,99.99
2017-11-06T01:03:33.091Z,99.99
2017-11-06T01:04:42.782Z,99.99
2017-11-06T01:05:53.197Z,99.99
2017-11-06T01:07:02.875Z,99.99
2017-11-06T01:08:12.909Z,99.99
2017-11-06T01:09:22.968Z,99.99
2017-11-06T01:10:32.654Z,99.99
2017-11-06T01:11:42.008Z,99.99
2017-11-06T01:12:52.020Z,99.99
2017-11-06T01:14:02.378Z,99.99
2017-11-06T01:15:12.054Z,99.99
2017-11-06T01:16:22.407Z,99.99
2017-11-06T01:17:32.435Z,99.99
2017-11-06T01:18:42.149Z,99.99
2017-11-06T01:19:51.884Z,99.99
2017-11-06T01:21:01.568Z,99.99
2017-11-06T01:22:11.925Z,99.99
2017-11-06T01:23:21.297Z,99.99
2017-11-06T01:24:31.353Z,99.99
2017-11-06T01:25:41.401Z,99.99
2017-11-06T01:26:51.415Z,99.99
2017-11-06T01:28:01.106Z,99.99
2017-11-06T01:29:11.516Z,99.99
2017-11-06T01:30:21.569Z,99.99
2017-11-06T01:31:31.957Z,99.99
2017-11-06T01:32:41.643Z,99.99
2017-11-06T01:33:51.321Z,99.99
2017-11-06T01:35:01.719Z,99.99
2017-11-06T01:36:11.749Z,99.99
2017-11-06T01:37:21.441Z,99.99
2017-11-06T01:38:31.124Z,99.99
2017-11-06T01:39:41.505Z,99.99
2017-11-06T01:40:51.552Z,99.99
2017-11-06T01:42:01.586Z,99.99
2017-11-06T01:43:11.609Z,99.99
2017-11-06T01:44:21.970Z,99.99
2017-11-06T01:45:31.691Z,99.99
2017-11-06T01:46:41.063Z,99.99
2017-11-06T01:47:51.456Z,99.99
2017-11-06T01:49:01.526Z,99.99
2017-11-06T01:50:10.900Z,99.99
2017-11-06T01:51:20.928Z,99.99
2017-11-06T01:52:30.640Z,99.99
2017-11-06T01:53:40.656Z,99.99
2017-11-06T01:54:50.344Z,99.99
2017-11-06T01:56:00.058Z,99.99
2017-11-06T01:57:09.405Z,99.99
2017-11-06T01:58:18.742Z,99.99
2017-11-06T01:59:28.090Z,99.99
2017-11-06T02:00:38.431Z,99.99
2017-11-06T02:01:48.789Z,99.99
2017-11-06T02:02:58.468Z,99.99
2017-11-06T02:04:07.821Z,99.99
2017-11-06T02:05:17.826Z,99.99
2017-11-06T02:06:26.842Z,99.99
2017-11-06T02:07:36.863Z,99.99
2017-11-06T02:08:46.219Z,99.99
2017-11-06T02:09:55.570Z,99.99
2017-11-06T02:11:05.586Z,99.99
2017-11-06T02:12:15.272Z,99.99
2017-11-06T02:13:25.302Z,99.99
2017-11-06T02:14:35.331Z,99.99
2017-11-06T02:15:45.014Z,99.99
2017-11-06T02:16:55.028Z,99.99
2017-11-06T02:18:04.702Z,99.99
2017-11-06T02:19:14.717Z,99.99
2017-11-06T02:20:23.723Z,99.99
2017-11-06T02:21:33.399Z,99.99
2017-11-06T02:22:43.080Z,99.99
2017-11-06T02:23:53.441Z,99.99
2017-11-06T02:25:03.464Z,99.99
2017-11-06T02:26:13.823Z,99.99
2017-11-06T02:27:23.855Z,99.99
2017-11-06T02:28:34.234Z,99.99
2017-11-06T02:29:43.902Z,99.99
2017-11-06T02:30:53.583Z,99.99
2017-11-06T02:32:02.593Z,99.99
2017-11-06T02:33:12.318Z,99.99
2017-11-06T02:34:22.002Z,99.99
2017-11-06T02:35:31.684Z,99.99
2017-11-06T02:36:41.369Z,99.99
2017-11-06T02:37:51.387Z,99.99
2017-11-06T02:41:07.492Z,99.99
2017-11-06T02:42:17.853Z,99.99
2017-11-06T02:43:27.520Z,99.99
2017-11-06T02:44:37.532Z,99.99
2017-11-06T02:45:47.199Z,99.99
2017-11-06T02:46:57.212Z,99.99
2017-11-06T02:48:06.885Z,99.99
2017-11-06T02:49:16.893Z,99.99
2017-11-06T02:50:27.229Z,99.99
2017-11-06T02:51:36.565Z,99.99
2017-11-06T02:52:45.897Z,99.99
2017-11-06T02:53:55.284Z,99.99
2017-11-06T02:55:05.843Z,99.99
2017-11-06T02:56:15.952Z,99.99
2017-11-06T02:57:26.301Z,99.99
2017-11-06T02:58:36.309Z,99.99
2017-11-06T02:59:46.660Z,99.99
2017-11-06T03:00:56.665Z,99.99
2017-11-06T03:02:07.018Z,99.99
2017-11-06T03:03:17.362Z,99.99
2017-11-06T03:04:26.724Z,99.99
2017-11-06T03:05:36.736Z,99.99
2017-11-06T03:06:47.087Z,99.99
2017-11-06T03:07:57.100Z,99.99
2017-11-06T03:09:06.763Z,99.99
2017-11-06T03:10:16.437Z,99.99
2017-11-06T03:11:26.478Z,99.99
2017-11-06T03:12:36.491Z,99.99
2017-11-06T03:13:45.833Z,99.99
2017-11-06T03:14:54.839Z,99.99
2017-11-06T03:16:04.868Z,99.99
2017-11-06T03:17:14.877Z,99.99
2017-11-06T03:18:24.887Z,99.99
2017-11-06T03:19:34.558Z,99.99
2017-11-06T03:20:44.892Z,99.99
2017-11-06T03:21:54.907Z,99.99
2017-11-06T03:23:04.938Z,99.99
2017-11-06T03:24:13.941Z,99.99
2017-11-06T03:25:23.940Z,99.99
2017-11-06T03:26:33.961Z,99.99
2017-11-06T03:27:43.964Z,99.99
2017-11-06T03:28:53.967Z,99.99
2017-11-06T03:30:03.640Z,99.99
2017-11-06T03:31:13.682Z,99.99
2017-11-06T03:32:24.067Z,99.99
2017-11-06T03:33:33.401Z,99.99
2017-11-06T03:34:43.403Z,99.99
2017-11-06T03:35:53.085Z,99.99
2017-11-06T03:37:03.421Z,99.99
2017-11-06T03:38:12.750Z,99.99
2017-11-06T03:39:22.437Z,99.99
2017-11-06T03:40:32.779Z,99.99
2017-11-06T03:41:42.783Z,99.99
2017-11-06T03:42:53.125Z,99.99
2017-11-06T03:44:03.182Z,99.99
2017-11-06T03:45:12.849Z,99.99
2017-11-06T03:46:22.525Z,99.99
2017-11-06T03:47:31.872Z,99.99
2017-11-06T03:48:41.216Z,99.99
2017-11-06T03:49:51.276Z,99.99
2017-11-06T03:51:00.574Z,99.99
2017-11-06T03:52:10.252Z,99.99
2017-11-06T03:53:20.256Z,99.99
2017-11-06T03:54:30.605Z,99.99
2017-11-06T03:55:40.273Z,99.99
2017-11-06T03:56:49.612Z,99.99
2017-11-06T03:57:59.616Z,99.99
2017-11-06T03:59:09.956Z,99.99
2017-11-06T04:00:19.960Z,99.99
2017-11-06T04:01:29.294Z,99.99
2017-11-06T04:02:39.647Z,99.99
2017-11-06T04:03:49.984Z,99.99
2017-11-06T04:04:59.989Z,99.99
2017-11-06T04:06:09.660Z,99.99
2017-11-06T04:07:19.663Z,99.99
2017-11-06T04:08:29.668Z,99.99
2017-11-06T04:09:39.333Z,99.99
2017-11-06T04:10:49.014Z,99.99
2017-11-06T04:11:59.022Z,99.99
2017-11-06T04:13:09.363Z,99.99
2017-11-06T04:14:18.696Z,99.99
2017-11-06T04:15:28.029Z,99.99
2017-11-06T04:16:38.032Z,99.99
2017-11-06T04:17:48.364Z,99.99
2017-11-06T04:18:57.698Z,99.99
2017-11-06T04:20:07.704Z,99.99
2017-11-06T04:21:18.043Z,99.99
2017-11-06T04:22:28.541Z,99.99
2017-11-06T04:23:37.539Z,99.99
2017-11-06T04:24:47.221Z,99.99
2017-11-06T04:25:57.226Z,99.99
2017-11-06T04:27:06.900Z,99.99
2017-11-06T04:28:16.582Z,99.99
2017-11-06T04:29:26.923Z,99.99
2017-11-06T04:30:36.932Z,99.99
2017-11-06T04:31:46.605Z,99.99
2017-11-06T04:32:56.269Z,99.99
2017-11-06T04:34:06.283Z,99.99
2017-11-06T04:35:16.294Z,99.99
2017-11-06T04:36:26.300Z,99.99
2017-11-06T04:37:35.980Z,99.99
2017-11-06T04:38:46.324Z,99.99
2017-11-06T04:39:56.326Z,99.99
2017-11-06T04:41:06.000Z,99.99
2017-11-06T04:42:15.352Z,99.99
2017-11-06T04:43:24.687Z,99.99
2017-11-06T04:44:34.354Z,99.99
2017-11-06T04:45:44.035Z,99.99
2017-11-06T04:46:53.703Z,99.99
2017-11-06T04:48:03.377Z,99.99
2017-11-06T04:49:12.706Z,99.99
2017-11-06T04:50:23.047Z,99.99
2017-11-06T04:51:32.392Z,99.99
2017-11-06T04:52:42.060Z,99.99
2017-11-06T04:53:52.064Z,99.99
2017-11-06T04:55:01.408Z,99.99
2017-11-06T04:56:10.745Z,99.99
2017-11-06T04:57:20.750Z,99.99
2017-11-06T04:58:30.757Z,99.99
2017-11-06T04:59:40.767Z,99.99
2017-11-06T05:00:50.765Z,99.99
2017-11-06T05:02:00.769Z,99.99
2017-11-06T05:03:10.105Z,99.99
2017-11-06T05:04:19.782Z,99.99
2017-11-06T05:05:29.789Z,99.99
2017-11-06T05:06:39.127Z,99.99
2017-11-06T05:07:48.792Z,99.99
2017-11-06T05:08:58.797Z,99.99
2017-11-06T05:10:08.139Z,99.99
2017-11-06T05:11:18.161Z,99.99
2017-11-06T05:12:27.842Z,99.99
2017-11-06T05:13:38.189Z,99.99
2017-11-06T05:14:48.531Z,99.99
2017-11-06T05:15:58.208Z,99.99
2017-11-06T05:17:07.551Z,99.99
2017-11-06T05:18:17.232Z,99.99
2017-11-06T05:19:26.569Z,99.99
2017-11-06T05:20:36.565Z,99.99
2017-11-06T05:21:46.566Z,99.99
2017-11-06T05:22:56.575Z,99.99
2017-11-06T05:24:06.589Z,99.99
2017-11-06T05:25:16.936Z,99.99
2017-11-06T05:26:26.938Z,99.99
2017-11-06T05:27:36.954Z,99.99
2017-11-06T05:28:46.680Z,99.99
2017-11-06T05:29:56.686Z,99.99
2017-11-06T05:31:06.360Z,99.99
2017-11-06T05:32:16.027Z,99.99
2017-11-06T05:33:26.036Z,99.99
2017-11-06T05:34:35.706Z,99.99
2017-11-06T05:35:45.723Z,99.99
2017-11-06T05:36:55.731Z,99.99
2017-11-06T05:38:05.400Z,99.99
2017-11-06T05:39:15.754Z,99.99
2017-11-06T05:40:25.766Z,99.99
2017-11-06T05:41:36.117Z,99.99
2017-11-06T05:42:46.473Z,99.99
2017-11-06T05:43:55.805Z,99.99
2017-11-06T05:45:05.816Z,99.99
2017-11-06T05:46:15.815Z,99.99
2017-11-06T05:47:25.821Z,99.99
2017-11-06T05:48:35.841Z,99.99
2017-11-06T05:49:45.847Z,99.99
2017-11-06T05:50:55.851Z,99.99
2017-11-06T05:52:05.186Z,99.99
2017-11-06T05:53:14.855Z,99.99
2017-11-06T05:54:23.852Z,99.99
2017-11-06T05:55:33.518Z,99.99
2017-11-06T05:56:42.521Z,99.99
2017-11-06T05:57:52.523Z,99.99
2017-11-06T05:59:01.861Z,99.99
2017-11-06T06:00:11.869Z,99.99
2017-11-06T06:01:21.653Z,99.99
2017-11-06T06:02:31.659Z,99.99
2017-11-06T06:03:41.336Z,99.99
2017-11-06T06:04:51.338Z,99.99
2017-11-06T06:06:01.014Z,99.99
2017-11-06T06:07:10.700Z,99.99
2017-11-06T06:08:20.710Z,99.99
2017-11-06T06:09:31.063Z,99.99
2017-11-06T06:10:40.406Z,99.99
2017-11-06T06:11:49.763Z,99.99
2017-11-06T06:12:59.766Z,99.99
2017-11-06T06:14:09.435Z,99.99
2017-11-06T06:15:19.450Z,99.99
2017-11-06T06:16:29.789Z,99.99
2017-11-06T06:17:39.127Z,99.99
2017-11-06T06:18:49.509Z,99.99
2017-11-06T06:19:59.509Z,99.99
2017-11-06T06:21:09.516Z,99.99
2017-11-06T06:22:18.522Z,99.99
2017-11-06T06:23:28.534Z,99.99
2017-11-06T06:24:38.634Z,99.99
2017-11-06T06:25:48.337Z,99.99
2017-11-06T06:26:58.346Z,99.99
2017-11-06T06:28:07.693Z,99.99
2017-11-06T06:29:17.750Z,99.99
2017-11-06T06:30:27.419Z,99.99
2017-11-06T06:31:37.093Z,99.99
2017-11-06T06:32:47.099Z,99.99
2017-11-06T06:33:56.432Z,99.99
2017-11-06T06:35:06.774Z,99.99
2017-11-06T06:36:17.131Z,99.99
2017-11-06T06:37:26.798Z,99.99
2017-11-06T06:38:36.469Z,99.99
2017-11-06T06:39:46.475Z,99.99
2017-11-06T06:40:56.484Z,99.99
2017-11-06T06:42:06.494Z,99.99
2017-11-06T06:43:16.492Z,99.99
2017-11-06T06:44:26.218Z,99.99
2017-11-06T06:45:36.227Z,99.99
2017-11-06T06:46:45.892Z,99.49
2017-11-06T06:47:55.893Z,99.21
2017-11-06T06:49:05.242Z,99.58
2017-11-06T06:50:15.250Z,99.49
2017-11-06T06:51:24.919Z,98.83
2017-11-06T06:52:34.926Z,99.3
2017-11-06T06:53:44.262Z,98.73
2017-11-06T06:54:54.270Z,99.3
2017-11-06T06:56:04.278Z,98.92
2017-11-06T06:57:13.624Z,99.3
2017-11-06T06:58:23.299Z,99.97
2017-11-06T06:59:32.643Z,99.68
2017-11-06T07:00:42.650Z,99.4
2017-11-06T07:01:52.317Z,99.4
2017-11-06T07:03:02.431Z,98.54
2017-11-06T07:04:11.982Z,97.97
2017-11-06T07:05:22.158Z,98.73
2017-11-06T07:06:31.160Z,99.49
2017-11-06T07:07:40.494Z,97.78
2017-11-06T07:08:50.167Z,97.41
2017-11-06T07:09:59.507Z,98.07
2017-11-06T07:11:09.864Z,97.6
2017-11-06T07:12:19.600Z,97.31
2017-11-06T07:13:28.969Z,97.5
2017-11-06T07:14:37.634Z,97.41
2017-11-06T07:15:47.642Z,97.5
2017-11-06T07:16:57.309Z,97.6
2017-11-06T07:18:06.998Z,98.92
2017-11-06T07:19:16.325Z,98.83
2017-11-06T07:20:25.660Z,98.73
2017-11-06T07:21:34.998Z,97.97
2017-11-06T07:22:44.999Z,99.21
2017-11-06T07:23:55.012Z,99.3
2017-11-06T07:25:04.698Z,97.22
2017-11-06T07:26:14.705Z,97.07
2017-11-06T07:27:24.708Z,96.64
2017-11-06T07:28:34.416Z,95.84
2017-11-06T07:29:44.822Z,96.6
2017-11-06T07:30:54.832Z,95.75
2017-11-06T07:32:04.516Z,96.03
2017-11-06T07:33:14.537Z,96.17
2017-11-06T07:34:24.894Z,96.41
2017-11-06T07:35:34.581Z,95.84
2017-11-06T07:36:44.286Z,96.12
2017-11-06T07:37:53.650Z,96.03
2017-11-06T07:39:02.983Z,95.94
2017-11-06T07:40:12.660Z,96.22
2017-11-06T07:41:22.691Z,97.64
2017-11-06T07:42:32.101Z,97.83
2017-11-06T07:43:42.655Z,96.22
2017-11-06T07:44:52.678Z,95.46
2017-11-06T07:46:02.526Z,96.5
2017-11-06T07:47:12.958Z,95.84
2017-11-06T07:48:22.657Z,94.42
2017-11-06T07:49:33.039Z,94.98
2017-11-06T07:50:43.436Z,94.42
2017-11-06T07:51:54.480Z,94.51
2017-11-06T07:53:04.726Z,93.84
2017-11-06T07:54:15.298Z,93.75
2017-11-06T07:55:25.676Z,93.65
2017-11-06T07:56:36.237Z,93.46
2017-11-06T07:57:45.943Z,93.56
2017-11-06T07:58:55.960Z,94.51
2017-11-06T08:00:05.299Z,94.7
2017-11-06T08:01:15.024Z,93.23
2017-11-06T08:02:24.367Z,93.65
2017-11-06T08:03:34.105Z,93.41
2017-11-06T08:04:44.117Z,93.79
2017-11-06T08:05:53.784Z,94.46
2017-11-06T08:07:03.802Z,93.99
2017-11-06T08:08:13.650Z,93.79
2017-11-06T08:09:23.811Z,93.41
2017-11-06T08:10:34.290Z,92.66
2017-11-06T08:11:44.311Z,93.04
2017-11-06T08:12:54.032Z,93.51
2017-11-06T08:14:03.710Z,93.51
2017-11-06T08:15:13.419Z,94.08
2017-11-06T08:16:23.470Z,92.85
2017-11-06T08:17:33.171Z,92.56
2017-11-06T08:18:43.184Z,92.37
2017-11-06T08:19:52.856Z,91.8
2017-11-06T08:21:02.869Z,92.18
2017-11-06T08:22:11.535Z,93.23
2017-11-06T08:23:21.878Z,92.85
2017-11-06T08:24:31.558Z,92.18
2017-11-06T08:25:40.898Z,91.89
2017-11-06T08:26:51.250Z,92.08
2017-11-06T08:28:00.255Z,92.37
2017-11-06T08:29:09.935Z,92.85
2017-11-06T08:30:19.974Z,92.08
2017-11-06T08:31:29.640Z,92.27
2017-11-06T08:32:39.647Z,91.61
2017-11-06T08:33:49.671Z,92.61
2017-11-06T08:35:00.019Z,90.99
2017-11-06T08:36:10.045Z,90.42
2017-11-06T08:37:20.096Z,91.37
2017-11-06T08:38:29.797Z,90.99
2017-11-06T08:39:39.477Z,91.47
2017-11-06T08:40:49.839Z,92.03
2017-11-06T08:41:59.974Z,90.52
2017-11-06T08:43:09.644Z,91.08
2017-11-06T08:44:19.682Z,90.8
2017-11-06T08:45:29.696Z,89.94
2017-11-06T08:46:39.730Z,90.04
2017-11-06T08:47:50.100Z,90.04
2017-11-06T08:49:00.100Z,89.85
2017-11-06T08:50:10.456Z,89.85
2017-11-06T08:51:20.475Z,89.09
2017-11-06T08:52:30.148Z,89.28
2017-11-06T08:53:40.162Z,88.71
2017-11-06T08:54:50.167Z,89.09
2017-11-06T08:55:59.854Z,90.04
2017-11-06T08:57:09.864Z,90.8
2017-11-06T08:58:19.885Z,90.61
2017-11-06T08:59:29.224Z,91.66
2017-11-06T09:00:38.565Z,91.7
2017-11-06T09:01:48.599Z,89.51
2017-11-06T09:02:57.620Z,88.23
2017-11-06T09:04:07.295Z,89.51
2017-11-06T09:05:16.299Z,88.46
2017-11-06T09:06:26.040Z,89.23
2017-11-06T09:07:35.074Z,87.8
2017-11-06T09:08:45.084Z,88.66
2017-11-06T09:09:55.099Z,87.61
2017-11-06T09:11:05.136Z,87.99
2017-11-06T09:12:14.813Z,88.28
2017-11-06T09:13:24.158Z,88.56
2017-11-06T09:14:33.831Z,88.37
2017-11-06T09:15:43.509Z,89.61
2017-11-06T09:16:53.854Z,88.37
2017-11-06T09:18:03.892Z,88.85
2017-11-06T09:19:13.923Z,87.9
2017-11-06T09:20:23.596Z,87.99
2017-11-06T09:21:33.296Z,87.8
2017-11-06T09:22:42.408Z,87.52
2017-11-06T09:23:51.994Z,87.52
2017-11-06T09:25:02.566Z,87.61
2017-11-06T09:26:13.131Z,86.47
2017-11-06T09:27:23.770Z,87.23
2017-11-06T09:28:34.332Z,86.94
2017-11-06T09:29:44.490Z,86.9
2017-11-06T09:30:54.054Z,86.42
2017-11-06T09:32:03.871Z,86.61
2017-11-06T09:33:13.557Z,87.37
2017-11-06T09:34:23.633Z,87.56
2017-11-06T09:35:34.168Z,88.42
2017-11-06T09:36:44.288Z,86.7
2017-11-06T09:37:53.651Z,86.42
2017-11-06T09:39:03.000Z,87.65
2017-11-06T09:40:13.014Z,87.37
2017-11-06T09:41:22.689Z,87.18
2017-11-06T09:42:32.413Z,88.13
2017-11-06T09:43:42.089Z,88.04
2017-11-06T09:44:52.106Z,88.04
2017-11-06T09:46:02.455Z,87.52
2017-11-06T09:47:12.197Z,88.18
2017-11-06T09:48:20.867Z,88.85
2017-11-06T09:49:31.229Z,88.46
2017-11-06T09:50:41.250Z,88.18
2017-11-06T09:51:51.257Z,88.37
2017-11-06T09:53:00.599Z,89.42
2017-11-06T09:54:10.272Z,88.66
2017-11-06T09:55:19.945Z,88.71
2017-11-06T09:56:29.621Z,88.33
2017-11-06T09:57:38.959Z,89.28
2017-11-06T09:58:48.966Z,89
2017-11-06T09:59:58.638Z,89.47
2017-11-06T10:01:08.655Z,89.89
2017-11-06T10:02:18.683Z,89.14
2017-11-06T10:03:27.706Z,87.9
2017-11-06T10:04:37.106Z,88.09
2017-11-06T10:05:46.451Z,89.04
2017-11-06T10:06:56.160Z,88.66
2017-11-06T10:08:05.832Z,87.9
2017-11-06T10:09:15.559Z,87.71
2017-11-06T10:10:24.701Z,87.13
2017-11-06T10:11:34.513Z,88.46
2017-11-06T10:12:44.909Z,89.23
2017-11-06T10:13:54.950Z,87.75
2017-11-06T10:15:04.976Z,86.13
2017-11-06T10:16:14.310Z,86.42
2017-11-06T10:17:23.315Z,86.99
2017-11-06T10:18:32.988Z,84.52
2017-11-06T10:19:42.327Z,83.98
2017-11-06T10:20:52.006Z,83.13
2017-11-06T10:22:02.027Z,83.22
2017-11-06T10:23:11.780Z,83.03
2017-11-06T10:24:21.593Z,82.75
2017-11-06T10:25:30.654Z,82.27
2017-11-06T10:26:40.024Z,83.22
2017-11-06T10:27:50.055Z,82.84
2017-11-06T10:29:00.506Z,83.41
2017-11-06T10:30:10.987Z,82.93
2017-11-06T10:31:20.399Z,83.32
2017-11-06T10:32:30.085Z,83.03
2017-11-06T10:33:39.783Z,82.18
2017-11-06T10:34:49.820Z,82.08
2017-11-06T10:35:59.185Z,82.18
2017-11-06T10:37:09.198Z,82.65
2017-11-06T10:38:18.896Z,81.55
2017-11-06T10:39:28.622Z,81.6
2017-11-06T10:40:37.962Z,82.46
2017-11-06T10:41:47.648Z,82.08
2017-11-06T10:42:57.996Z,82.56
2017-11-06T10:44:07.679Z,83.03
2017-11-06T10:45:17.685Z,82.93
2017-11-06T10:46:27.451Z,82.93
2017-11-06T10:47:36.869Z,83.22
2017-11-06T10:48:46.888Z,83.41
2017-11-06T10:49:56.904Z,84.56
2017-11-06T10:51:06.921Z,83.32
2017-11-06T10:52:16.311Z,82.79
2017-11-06T10:53:26.024Z,82.12
2017-11-06T10:54:35.701Z,80.6
2017-11-06T10:55:45.042Z,80.69
2017-11-06T10:56:54.715Z,80.31
2017-11-06T10:58:04.402Z,80.6
2017-11-06T10:59:14.754Z,82.5
2017-11-06T11:00:24.436Z,82.41
2017-11-06T11:01:34.160Z,81.36
2017-11-06T11:02:43.955Z,82.5
2017-11-06T11:03:53.995Z,80.98
2017-11-06T11:05:04.009Z,81.07
2017-11-06T11:06:14.026Z,81.36
2017-11-06T11:07:23.781Z,82.69
2017-11-06T11:08:33.902Z,84.03
2017-11-06T11:09:44.316Z,83.26
2017-11-06T11:10:53.752Z,82.31
2017-11-06T11:12:03.875Z,82.5
2017-11-06T11:13:14.023Z,80.73
2017-11-06T11:14:23.364Z,79.3
2017-11-06T11:15:33.378Z,79.88
2017-11-06T11:16:43.728Z,79.21
2017-11-06T11:17:53.786Z,79.4
2017-11-06T11:19:03.901Z,79.68
2017-11-06T11:20:14.059Z,79.59
2017-11-06T11:21:24.234Z,78.54
2017-11-06T11:22:34.400Z,79.59
2017-11-06T11:23:44.473Z,77.78
2017-11-06T11:24:54.562Z,77.87
2017-11-06T11:26:04.618Z,78.16
2017-11-06T11:27:13.997Z,78.92
2017-11-06T11:28:24.096Z,78.35
2017-11-06T11:29:33.114Z,77.06
2017-11-06T11:30:42.460Z,78.86
2017-11-06T11:31:52.303Z,76.39
2017-11-06T11:33:02.433Z,75.81
2017-11-06T11:34:12.857Z,78.2
2017-11-06T11:35:22.905Z,76.29
2017-11-06T11:36:33.065Z,76.29
2017-11-06T11:37:43.587Z,76.29
2017-11-06T11:38:53.747Z,76.01
2017-11-06T11:40:03.909Z,77.34
2017-11-06T11:41:14.127Z,80.2
2017-11-06T11:42:23.872Z,76.1
2017-11-06T11:43:33.554Z,76.29
2017-11-06T11:44:43.263Z,76.01
2017-11-06T11:45:53.096Z,77.06
2017-11-06T11:47:03.566Z,76.86
2017-11-06T11:48:13.907Z,75.53
2017-11-06T11:49:23.595Z,74.57
2017-11-06T11:50:33.624Z,74.77
2017-11-06T11:51:43.480Z,76.39
2017-11-06T11:52:52.702Z,78.01
2017-11-06T11:54:02.853Z,75.37
2017-11-06T11:55:13.018Z,75.05
2017-11-06T11:56:22.802Z,76.39
2017-11-06T11:57:32.599Z,77.76
2017-11-06T11:58:42.736Z,79.19
2017-11-06T11:59:52.554Z,79.48
2017-11-06T12:01:02.001Z,73.32
2017-11-06T12:02:12.528Z,71.98
2017-11-06T12:03:22.648Z,73.83
2017-11-06T12:04:32.829Z,71.06
2017-11-06T12:05:43.322Z,70.77
2017-11-06T12:06:52.806Z,68.96
2017-11-06T12:08:02.813Z,68.76
2017-11-06T12:09:12.494Z,70.67
2017-11-06T12:10:22.540Z,68.29
2017-11-06T12:11:31.880Z,68.48
2017-11-06T12:12:42.245Z,69.24
2017-11-06T12:13:51.674Z,70.96
2017-11-06T12:15:01.796Z,72.3
2017-11-06T12:16:11.937Z,68.38
2017-11-06T12:17:22.300Z,68.67
2017-11-06T12:18:32.647Z,69.43
2017-11-06T12:19:42.678Z,69.09
2017-11-06T12:20:53.039Z,70.14
2017-11-06T12:22:02.719Z,64.98
2017-11-06T12:23:12.589Z,62.87
2017-11-06T12:24:22.744Z,64.31
2017-11-06T12:25:32.528Z,64.85
2017-11-06T12:26:41.960Z,66.56
2017-11-06T12:27:52.372Z,65.61
2017-11-06T12:29:02.052Z,65.61
2017-11-06T12:30:11.065Z,66.72
2017-11-06T12:31:20.406Z,67.77
2017-11-06T12:32:30.445Z,68.82
2017-11-06T12:33:40.856Z,67.3
2017-11-06T12:34:50.951Z,67.74
2017-11-06T12:36:00.157Z,69.65
2017-11-06T12:37:10.093Z,70.61
2017-11-06T12:38:20.314Z,69.84
2017-11-06T12:39:29.951Z,70.03
2017-11-06T12:40:40.115Z,69.84
2017-11-06T12:41:49.609Z,70.98
2017-11-06T12:42:59.323Z,71.08
2017-11-06T12:44:09.440Z,69.84
2017-11-06T12:45:18.850Z,69.65
2017-11-06T12:46:28.368Z,72.32
2017-11-06T12:47:38.534Z,74.13
2017-11-06T12:48:48.608Z,70.13
2017-11-06T12:49:58.800Z,68.26
2017-11-06T12:51:09.037Z,72.26
2017-11-06T12:52:19.214Z,74.84
2017-11-06T12:53:28.315Z,75.51
2017-11-06T12:54:37.654Z,76.27
2017-11-06T12:55:48.000Z,75.74
2017-11-06T12:56:57.709Z,73.92
2017-11-06T12:58:07.452Z,67.71
2017-11-06T12:59:17.608Z,66.56
2017-11-06T13:00:27.127Z,67.71
2017-11-06T13:01:37.013Z,71.63
2017-11-06T13:02:46.877Z,71.25
2017-11-06T13:03:56.763Z,71.63
2017-11-06T13:05:06.591Z,73.92
2017-11-06T13:06:16.084Z,74.88
2017-11-06T13:07:26.253Z,72.97
2017-11-06T13:08:36.136Z,74.05
2017-11-06T13:09:46.008Z,73.96
2017-11-06T13:10:55.837Z,74.44
2017-11-06T13:12:05.970Z,73
2017-11-06T13:13:15.776Z,70.33
2017-11-06T13:14:26.353Z,69.37
2017-11-06T13:15:36.536Z,66.31
2017-11-06T13:16:46.057Z,64.31
2017-11-06T13:17:55.539Z,65.97
2017-11-06T13:19:05.603Z,67.4
2017-11-06T13:20:16.054Z,62.24
2017-11-06T13:21:26.271Z,62.04
2017-11-06T13:22:35.741Z,63.76
2017-11-06T13:23:45.890Z,62.52
2017-11-06T13:24:54.896Z,61.47
2017-11-06T13:26:05.017Z,61.72
2017-11-06T13:27:15.215Z,60.49
2017-11-06T13:28:25.782Z,62.68
2017-11-06T13:29:35.893Z,62.97
2017-11-06T13:30:45.117Z,65.64
2017-11-06T13:31:55.265Z,63.39
2017-11-06T13:33:05.396Z,65.48
2017-11-06T13:34:15.591Z,63.67
2017-11-06T13:35:26.171Z,60.9
2017-11-06T13:36:35.997Z,63.6
2017-11-06T13:37:46.116Z,57.97
2017-11-06T13:38:56.385Z,57.68
2017-11-06T13:40:06.935Z,59.88
2017-11-06T13:41:16.835Z,61.98
2017-11-06T13:42:27.386Z,63.8
2017-11-06T13:43:37.538Z,65.42
2017-11-06T13:44:47.727Z,64.22
2017-11-06T13:45:57.899Z,62.77
2017-11-06T13:47:08.130Z,62.49
2017-11-06T13:48:17.257Z,61.25
2017-11-06T13:49:27.796Z,61.34
2017-11-06T13:50:37.814Z,61.34
2017-11-06T13:51:47.198Z,61.44
2017-11-06T13:52:56.544Z,62.14
2017-11-06T13:54:05.551Z,62.9
2017-11-06T13:55:15.569Z,63
2017-11-06T13:56:25.639Z,60.83
2017-11-06T13:57:35.650Z,57.95
2017-11-06T13:58:45.335Z,56.74
2017-11-06T13:59:55.010Z,56.26
2017-11-06T14:01:04.756Z,55.13
2017-11-06T14:02:15.108Z,53.82
2017-11-06T14:03:25.249Z,54.11
2017-11-06T14:04:35.753Z,53.34
2017-11-06T14:05:45.671Z,52.79
2017-11-06T14:06:55.180Z,51.83
2017-11-06T14:08:04.857Z,51.06
2017-11-06T14:09:14.209Z,50.87
2017-11-06T14:10:24.560Z,48.66
2017-11-06T14:11:34.343Z,49.6
2017-11-06T14:12:44.264Z,50.08
2017-11-06T14:13:53.721Z,50.08
2017-11-06T14:15:04.365Z,49.02
2017-11-06T14:16:14.643Z,48.64
2017-11-06T14:17:24.586Z,48.54
2017-11-06T14:18:35.198Z,48.83
2017-11-06T14:19:45.151Z,48.64
2017-11-06T14:20:54.772Z,49
2017-11-06T14:22:05.141Z,49.19
2017-11-06T14:23:15.334Z,49.96
2017-11-06T14:24:25.554Z,49.86
2017-11-06T14:25:35.014Z,49.76
2017-11-06T14:26:45.446Z,49
2017-11-06T14:27:55.789Z,48.9
2017-11-06T14:29:06.158Z,50.05
2017-11-06T14:30:15.891Z,49.31
2017-11-06T14:31:25.234Z,48.54
2017-11-06T14:32:35.251Z,48.74
2017-11-06T14:33:45.614Z,48.64
2017-11-06T14:34:55.308Z,48.64
2017-11-06T14:36:05.335Z,48.64
2017-11-06T14:37:15.029Z,48.64
2017-11-06T14:38:24.724Z,48.66
2017-11-06T14:39:34.076Z,46.74
2017-11-06T14:40:43.757Z,44.24
2017-11-06T14:41:54.113Z,42.4
2017-11-06T14:43:04.494Z,44.2
2017-11-06T14:44:13.879Z,45.36
2017-11-06T14:45:23.896Z,47.46
2017-11-06T14:46:33.580Z,45.9
2017-11-06T14:47:43.629Z,45.23
2017-11-06T14:48:53.319Z,44.83
2017-11-06T14:50:02.705Z,47.3
2017-11-06T14:51:12.367Z,46.91
2017-11-06T14:52:21.708Z,48.68
2017-11-06T14:53:32.063Z,49.74
2017-11-06T14:54:41.743Z,51.75
2017-11-06T14:55:52.148Z,52.1
2017-11-06T14:57:02.187Z,54.02
2017-11-06T14:58:11.533Z,54.85
2017-11-06T14:59:21.548Z,54.27
2017-11-06T15:00:30.898Z,56.25
2017-11-06T15:01:40.923Z,56.76
2017-11-06T15:02:50.485Z,57.04
2017-11-06T15:04:00.524Z,58.29